createdAt,value
2018-09-02T00:02:19.438Z,3.00
2018-09-02T00:04:47.153Z,2.93
2018-09-02T00:07:14.546Z,2.60
2018-09-02T00:09:41.832Z,3.37
2018-09-02T00:12:09.224Z,2.80
2018-09-02T00:14:36.594Z,3.10
2018-09-02T00:17:03.979Z,3.33
2018-09-02T00:19:31.408Z,3.00
2018-09-02T00:21:59.109Z,2.60
2018-09-02T00:24:26.381Z,3.00
2018-09-02T00:26:53.696Z,2.47
2018-09-02T00:29:21.402Z,2.80
2018-09-02T00:31:48.730Z,2.73
2018-09-02T00:34:16.169Z,2.80
2018-09-02T00:36:43.534Z,2.77
2018-09-02T00:39:11.414Z,2.87
2018-09-02T00:41:39.607Z,2.47
2018-09-02T00:44:07.204Z,2.63
2018-09-02T00:46:35.279Z,3.07
2018-09-02T00:49:02.896Z,2.77
2018-09-02T00:51:30.286Z,3.03
2018-09-02T00:53:57.678Z,2.53
2018-09-02T00:56:25.042Z,2.27
2018-09-02T00:58:52.389Z,2.40
2018-09-02T01:01:19.843Z,2.50
2018-09-02T01:03:47.190Z,2.87
2018-09-02T01:06:14.849Z,2.83
2018-09-02T01:08:42.121Z,2.70
2018-09-02T01:11:09.477Z,2.90
2018-09-02T01:13:37.123Z,3.23
2018-09-02T01:16:04.833Z,2.20
2018-09-02T01:18:32.146Z,2.80
2018-09-02T01:20:59.443Z,2.60
2018-09-02T01:23:26.972Z,2.73
2018-09-02T01:25:55.229Z,2.70
2018-09-02T01:28:22.645Z,2.27
2018-09-02T01:30:49.957Z,2.90
2018-09-02T01:33:17.308Z,2.80
2018-09-02T01:35:44.569Z,2.93
2018-09-02T01:38:11.820Z,2.90
2018-09-02T01:40:39.146Z,2.30
2018-09-02T01:43:06.496Z,3.03
2018-09-02T01:45:34.066Z,3.03
2018-09-02T01:48:01.944Z,2.80
2018-09-02T01:50:29.247Z,2.53
2018-09-02T01:52:56.604Z,2.83
2018-09-02T01:55:24.023Z,2.63
2018-09-02T01:57:51.315Z,2.90
2018-09-02T02:00:18.620Z,2.80
2018-09-02T02:02:46.542Z,2.93
2018-09-02T02:05:13.839Z,2.30
2018-09-02T02:07:41.152Z,2.53
2018-09-02T02:10:08.445Z,2.83
2018-09-02T02:12:35.712Z,2.93
2018-09-02T02:15:03.089Z,3.50
2018-09-02T02:17:30.466Z,2.80
2018-09-02T02:19:57.803Z,2.90
2018-09-02T02:22:25.105Z,3.00
2018-09-02T02:24:52.387Z,2.80
2018-09-02T02:27:19.766Z,2.67
2018-09-02T02:29:47.144Z,2.60
2018-09-02T02:32:14.509Z,2.87
2018-09-02T02:34:41.785Z,3.10
2018-09-02T02:37:09.066Z,3.00
2018-09-02T02:39:36.373Z,3.40
2018-09-02T02:42:03.693Z,3.20
2018-09-02T02:44:30.999Z,6.30
2018-09-02T02:46:58.310Z,4.80
2018-09-02T02:49:25.612Z,3.70
2018-09-02T02:51:52.911Z,3.23
2018-09-02T02:54:20.786Z,3.97
2018-09-02T02:56:48.091Z,3.50
2018-09-02T02:59:15.435Z,3.27
2018-09-02T03:01:43.076Z,3.33
2018-09-02T03:04:10.340Z,3.20
2018-09-02T03:06:37.632Z,3.53
2018-09-02T03:09:06.109Z,3.10
2018-09-02T03:11:33.649Z,2.80
2018-09-02T03:14:01.409Z,3.17
2018-09-02T03:16:28.690Z,3.77
2018-09-02T03:18:55.995Z,3.60
2018-09-02T03:21:23.309Z,3.40
2018-09-02T03:23:50.638Z,3.57
2018-09-02T03:26:17.992Z,3.07
2018-09-02T03:28:45.932Z,3.37
2018-09-02T03:31:13.302Z,3.37
2018-09-02T03:33:40.558Z,3.40
2018-09-02T03:36:07.870Z,3.73
2018-09-02T03:38:35.187Z,3.20
2018-09-02T03:41:02.434Z,3.47
2018-09-02T03:43:29.751Z,3.13
2018-09-02T03:45:57.428Z,4.07
2018-09-02T03:48:24.705Z,3.47
2018-09-02T03:50:51.997Z,3.50
2018-09-02T03:53:19.375Z,3.00
2018-09-02T03:55:46.725Z,2.93
2018-09-02T03:58:13.973Z,3.50
2018-09-02T04:00:41.315Z,3.30
2018-09-02T04:03:08.621Z,3.77
2018-09-02T04:05:35.922Z,3.43
2018-09-02T04:08:03.274Z,3.07
2018-09-02T04:10:30.563Z,3.17
2018-09-02T04:12:57.881Z,3.07
2018-09-02T04:15:25.170Z,3.07
2018-09-02T04:17:52.462Z,2.70
2018-09-02T04:20:32.606Z,2.57
2018-09-02T04:23:00.028Z,2.30
2018-09-02T04:25:27.383Z,2.50
2018-09-02T04:27:55.023Z,2.43
2018-09-02T04:30:22.268Z,2.53
2018-09-02T04:32:49.524Z,2.80
2018-09-02T04:35:17.204Z,2.87
2018-09-02T04:37:44.678Z,2.63
2018-09-02T04:40:11.954Z,2.40
2018-09-02T04:42:39.256Z,2.70
2018-09-02T04:45:06.754Z,2.80
2018-09-02T04:47:34.039Z,3.00
2018-09-02T04:50:05.974Z,2.50
2018-09-02T04:52:33.261Z,3.10
2018-09-02T04:55:00.520Z,3.00
2018-09-02T04:57:28.225Z,3.10
2018-09-02T04:59:55.507Z,2.67
2018-09-02T05:02:23.066Z,2.90
2018-09-02T05:04:52.668Z,2.60
2018-09-02T05:07:20.024Z,3.00
2018-09-02T05:09:47.428Z,3.13
2018-09-02T05:12:14.781Z,2.20
2018-09-02T05:14:42.101Z,2.80
2018-09-02T05:17:09.455Z,2.90
2018-09-02T05:19:36.748Z,2.97
2018-09-02T05:22:04.363Z,2.70
2018-09-02T05:24:31.694Z,2.30
2018-09-02T05:26:59.068Z,2.53
2018-09-02T05:29:26.377Z,3.13
2018-09-02T05:31:53.920Z,3.10
2018-09-02T05:34:21.369Z,2.70
2018-09-02T05:36:48.708Z,3.30
2018-09-02T05:39:16.030Z,3.30
2018-09-02T05:41:43.367Z,2.97
2018-09-02T05:44:10.837Z,2.83
2018-09-02T05:46:38.067Z,2.83
2018-09-02T05:49:05.391Z,2.70
2018-09-02T05:51:32.881Z,2.60
2018-09-02T05:54:00.179Z,3.10
2018-09-02T05:56:36.959Z,2.57
2018-09-02T05:59:04.736Z,2.97
2018-09-02T06:01:32.076Z,2.73
2018-09-02T06:03:59.416Z,2.73
2018-09-02T06:06:26.765Z,3.60
2018-09-02T06:08:54.098Z,3.13
2018-09-02T06:11:21.488Z,3.00
2018-09-02T06:13:48.832Z,3.20
2018-09-02T06:16:16.168Z,3.43
2018-09-02T06:18:43.508Z,3.10
2018-09-02T06:21:10.985Z,2.87
2018-09-02T06:23:38.439Z,3.10
2018-09-02T06:26:05.825Z,2.70
2018-09-02T06:28:33.140Z,2.80
2018-09-02T06:31:01.310Z,3.00
2018-09-02T06:33:28.676Z,2.60
2018-09-02T06:35:56.054Z,3.03
2018-09-02T06:38:23.336Z,2.93
2018-09-02T06:40:50.589Z,3.17
2018-09-02T06:43:17.956Z,3.53
2018-09-02T06:45:45.906Z,3.30
2018-09-02T06:48:16.333Z,3.07
2018-09-02T06:50:43.642Z,3.30
2018-09-02T06:53:11.407Z,3.13
2018-09-02T06:55:38.673Z,3.30
2018-09-02T06:58:06.147Z,3.30
2018-09-02T07:00:33.495Z,3.53
2018-09-02T07:03:01.001Z,3.57
2018-09-02T07:05:28.353Z,3.20
2018-09-02T07:07:57.373Z,3.67
2018-09-02T07:10:25.162Z,2.80
2018-09-02T07:12:52.474Z,2.60
2018-09-02T07:15:19.766Z,2.80
2018-09-02T07:17:47.049Z,3.07
2018-09-02T07:20:15.131Z,3.40
2018-09-02T07:22:42.402Z,3.20
2018-09-02T07:25:10.062Z,3.20
2018-09-02T07:27:37.328Z,3.47
2018-09-02T07:30:04.712Z,3.13
2018-09-02T07:32:32.004Z,3.13
2018-09-02T07:34:59.269Z,3.50
2018-09-02T07:37:26.558Z,3.17
2018-09-02T07:39:53.876Z,3.63
2018-09-02T07:42:21.739Z,3.63
2018-09-02T07:44:49.080Z,3.10
2018-09-02T07:47:16.509Z,3.20
2018-09-02T07:49:43.817Z,3.40
2018-09-02T07:52:11.356Z,3.60
2018-09-02T07:54:38.706Z,3.17
2018-09-02T07:57:05.956Z,2.97
2018-09-02T07:59:33.266Z,3.53
2018-09-02T08:02:00.524Z,2.80
2018-09-02T08:04:27.818Z,3.30
2018-09-02T08:06:55.153Z,3.23
2018-09-02T08:09:22.467Z,3.27
2018-09-02T08:11:49.768Z,3.30
2018-09-02T08:14:17.081Z,3.80
2018-09-02T08:16:44.446Z,3.87
2018-09-02T08:19:11.773Z,3.43
2018-09-02T08:21:39.054Z,3.80
2018-09-02T08:24:06.415Z,3.07
2018-09-02T08:26:34.384Z,3.63
2018-09-02T08:29:01.921Z,3.57
2018-09-02T08:31:29.267Z,2.83
2018-09-02T08:33:56.540Z,4.20
2018-09-02T08:36:23.876Z,3.23
2018-09-02T08:38:51.171Z,3.37
2018-09-02T08:41:18.469Z,3.40
2018-09-02T08:43:45.758Z,3.57
2018-09-02T08:46:13.056Z,3.70
2018-09-02T08:48:41.035Z,3.73
2018-09-02T08:51:08.362Z,3.60
2018-09-02T08:53:35.622Z,3.67
2018-09-02T08:56:02.977Z,3.20
2018-09-02T08:58:30.248Z,3.57
2018-09-02T09:00:57.595Z,3.70
2018-09-02T09:03:26.050Z,3.53
2018-09-02T09:05:53.331Z,3.50
2018-09-02T09:08:20.919Z,3.47
2018-09-02T09:10:47.951Z,4.20
2018-09-02T09:13:15.252Z,3.40
2018-09-02T09:15:42.923Z,3.47
2018-09-02T09:18:10.331Z,3.80
2018-09-02T09:20:37.648Z,3.60
2018-09-02T09:23:04.987Z,3.20
2018-09-02T09:25:32.331Z,4.10
2018-09-02T09:27:59.587Z,3.67
2018-09-02T09:30:27.134Z,3.90
2018-09-02T09:32:54.461Z,3.53
2018-09-02T09:35:21.747Z,3.30
2018-09-02T09:37:49.099Z,4.70
2018-09-02T09:40:16.422Z,3.80
2018-09-02T09:42:43.687Z,4.30
2018-09-02T09:45:11.213Z,4.23
2018-09-02T09:47:38.502Z,4.10
2018-09-02T09:50:05.941Z,3.60
2018-09-02T09:52:33.281Z,3.50
2018-09-02T09:55:00.567Z,4.27
2018-09-02T09:57:28.542Z,4.47
2018-09-02T09:59:55.831Z,4.10
2018-09-02T10:02:23.638Z,4.17
2018-09-02T10:04:50.958Z,4.30
2018-09-02T10:07:18.244Z,3.70
2018-09-02T10:09:45.535Z,4.37
2018-09-02T10:12:12.827Z,4.40
2018-09-02T10:14:40.170Z,4.50
2018-09-02T10:17:07.991Z,5.17
2018-09-02T10:19:35.309Z,4.57
2018-09-02T10:22:03.281Z,4.57
2018-09-02T10:24:30.579Z,4.50
2018-09-02T10:26:58.417Z,4.60
2018-09-02T10:29:25.752Z,5.17
2018-09-02T10:31:53.217Z,4.63
2018-09-02T10:34:20.536Z,4.90
2018-09-02T10:36:47.887Z,5.33
2018-09-02T10:39:15.447Z,4.70
2018-09-02T10:41:43.295Z,5.30
2018-09-02T10:44:10.703Z,5.50
2018-09-02T10:46:38.006Z,4.90
2018-09-02T10:49:05.402Z,5.50
2018-09-02T10:51:32.694Z,4.93
2018-09-02T10:53:59.992Z,5.03
2018-09-02T10:56:27.268Z,5.10
2018-09-02T10:58:54.577Z,4.57
2018-09-02T11:01:21.837Z,4.77
2018-09-02T11:03:49.132Z,5.13
2018-09-02T11:06:16.461Z,4.40
2018-09-02T11:08:43.817Z,4.43
2018-09-02T11:11:11.146Z,5.57
2018-09-02T11:13:38.544Z,5.00
2018-09-02T11:16:05.803Z,4.67
2018-09-02T11:18:33.163Z,4.70
2018-09-02T11:21:00.454Z,5.10
2018-09-02T11:23:27.749Z,4.70
2018-09-02T11:25:55.113Z,5.17
2018-09-02T11:28:22.402Z,5.60
2018-09-02T11:30:49.773Z,4.53
2018-09-02T11:33:17.117Z,5.03
2018-09-02T11:35:44.403Z,4.83
2018-09-02T11:38:11.698Z,4.90
2018-09-02T11:40:39.006Z,4.90
2018-09-02T11:43:06.478Z,4.47
2018-09-02T11:45:33.865Z,4.43
2018-09-02T11:48:01.135Z,4.30
2018-09-02T11:50:28.442Z,3.93
2018-09-02T11:52:55.732Z,4.30
2018-09-02T11:55:23.042Z,4.63
2018-09-02T11:57:50.481Z,4.20
2018-09-02T12:00:17.739Z,4.07
2018-09-02T12:02:45.217Z,4.43
2018-09-02T12:05:12.527Z,5.00
2018-09-02T12:07:39.838Z,4.60
2018-09-02T12:10:07.133Z,4.63
2018-09-02T12:12:34.574Z,4.60
2018-09-02T12:15:02.628Z,4.77
2018-09-02T12:17:30.783Z,4.20
2018-09-02T12:19:58.084Z,4.03
2018-09-02T12:22:25.376Z,4.20
2018-09-02T12:24:52.931Z,3.93
2018-09-02T12:27:20.242Z,4.40
2018-09-02T12:29:47.553Z,4.10
2018-09-02T12:32:14.894Z,3.80
2018-09-02T12:34:42.223Z,4.03
2018-09-02T12:37:09.750Z,4.00
2018-09-02T12:39:37.085Z,3.80
2018-09-02T12:42:04.433Z,3.70
2018-09-02T12:44:31.730Z,3.80
2018-09-02T12:46:59.069Z,3.70
2018-09-02T12:49:26.358Z,3.97
2018-09-02T12:51:53.843Z,4.03
2018-09-02T12:54:20.999Z,3.60
2018-09-02T12:56:48.290Z,4.00
2018-09-02T12:59:16.880Z,3.97
2018-09-02T13:01:44.257Z,4.20
2018-09-02T13:04:11.612Z,4.03
2018-09-02T13:06:38.914Z,4.07
2018-09-02T13:09:07.141Z,3.77
2018-09-02T13:11:34.425Z,4.40
2018-09-02T13:14:02.114Z,3.60
2018-09-02T13:16:29.391Z,4.07
2018-09-02T13:18:56.737Z,4.33
2018-09-02T13:21:24.029Z,4.40
2018-09-02T13:23:51.374Z,4.23
2018-09-02T13:26:18.682Z,3.67
2018-09-02T13:28:45.965Z,4.23
2018-09-02T13:31:19.836Z,4.20
2018-09-02T13:33:47.180Z,4.53
2018-09-02T13:36:14.451Z,4.40
2018-09-02T13:38:42.004Z,4.83
2018-09-02T13:41:09.324Z,4.33
2018-09-02T13:43:36.639Z,5.77
2018-09-02T13:46:03.966Z,4.20
2018-09-02T13:48:31.422Z,5.63
2018-09-02T13:50:58.633Z,4.93
2018-09-02T13:53:26.017Z,4.93
2018-09-02T13:55:53.343Z,5.13
2018-09-02T13:58:20.610Z,4.47
2018-09-02T14:00:47.930Z,4.43
2018-09-02T14:03:15.871Z,4.43
2018-09-02T14:05:43.142Z,4.13
2018-09-02T14:08:10.828Z,5.37
2018-09-02T14:10:38.080Z,5.60
2018-09-02T14:13:05.534Z,4.73
2018-09-02T14:15:33.189Z,5.07
2018-09-02T14:18:00.535Z,4.83
2018-09-02T14:20:27.830Z,4.47
2018-09-02T14:22:55.243Z,4.47
2018-09-02T14:25:22.517Z,4.40
2018-09-02T14:27:49.880Z,4.70
2018-09-02T14:30:17.218Z,5.10
2018-09-02T14:32:45.306Z,5.13
2018-09-02T14:35:12.963Z,5.30
2018-09-02T14:37:40.249Z,5.00
2018-09-02T14:40:07.551Z,4.37
2018-09-02T14:42:34.843Z,5.07
2018-09-02T14:45:02.138Z,4.93
2018-09-02T14:47:30.415Z,4.97
2018-09-02T14:49:57.761Z,4.90
2018-09-02T14:52:25.108Z,4.10
2018-09-02T14:54:52.515Z,4.80
2018-09-02T14:57:19.846Z,4.93
2018-09-02T14:59:47.178Z,5.50
2018-09-02T15:02:14.490Z,4.47
2018-09-02T15:04:41.776Z,4.13
2018-09-02T15:07:09.077Z,4.70
2018-09-02T15:09:36.428Z,4.30
2018-09-02T15:12:04.092Z,4.17
2018-09-02T15:14:31.368Z,4.40
2018-09-02T15:16:58.736Z,4.10
2018-09-02T15:19:26.112Z,4.10
2018-09-02T15:21:53.421Z,4.30
2018-09-02T15:24:20.697Z,4.23
2018-09-02T15:26:48.015Z,4.13
2018-09-02T15:29:15.438Z,4.30
2018-09-02T15:31:42.762Z,4.20
2018-09-02T15:34:10.080Z,3.97
2018-09-02T15:36:37.724Z,4.67
2018-09-02T15:39:06.384Z,4.17
2018-09-02T15:41:33.650Z,4.10
2018-09-02T15:44:01.170Z,4.00
2018-09-02T15:46:28.406Z,4.43
2018-09-02T15:48:55.738Z,4.63
2018-09-02T15:51:23.047Z,4.40
2018-09-02T15:53:50.338Z,4.43
2018-09-02T15:56:17.630Z,4.70
2018-09-02T15:58:44.921Z,4.90
2018-09-02T16:01:12.325Z,4.70
2018-09-02T16:03:39.655Z,4.93
2018-09-02T16:06:06.964Z,4.30
2018-09-02T16:08:35.059Z,4.53
2018-09-02T16:11:02.402Z,4.47
2018-09-02T16:13:29.689Z,4.80
2018-09-02T16:15:56.979Z,5.13
2018-09-02T16:18:24.261Z,3.73
2018-09-02T16:20:51.597Z,4.37
2018-09-02T16:23:18.912Z,4.17
2018-09-02T16:25:46.237Z,4.40
2018-09-02T16:28:13.517Z,4.27
2018-09-02T16:30:40.815Z,4.03
2018-09-02T16:33:08.338Z,4.47
2018-09-02T16:35:35.606Z,4.60
2018-09-02T16:38:02.906Z,4.67
2018-09-02T16:40:30.207Z,5.30
2018-09-02T16:42:57.544Z,5.03
2018-09-02T16:45:24.824Z,5.00
2018-09-02T16:47:52.125Z,4.67
2018-09-02T16:50:19.404Z,5.07
2018-09-02T16:52:46.737Z,4.20
2018-09-02T16:55:14.900Z,4.87
2018-09-02T16:57:42.225Z,5.57
2018-09-02T17:00:09.555Z,5.83
2018-09-02T17:02:36.996Z,5.60
2018-09-02T17:05:10.666Z,5.20
2018-09-02T17:07:38.000Z,5.07
2018-09-02T17:10:05.844Z,5.97
2018-09-02T17:12:33.355Z,4.87
2018-09-02T17:15:00.540Z,5.07
2018-09-02T17:17:27.860Z,5.40
2018-09-02T17:19:57.228Z,5.40
2018-09-02T17:22:24.640Z,5.03
2018-09-02T17:24:52.080Z,5.87
2018-09-02T17:27:19.561Z,5.53
2018-09-02T17:29:46.958Z,5.30
2018-09-02T17:32:16.763Z,5.23
2018-09-02T17:34:44.161Z,5.60
2018-09-02T17:37:11.532Z,5.57
2018-09-02T17:39:38.871Z,5.43
2018-09-02T17:42:06.196Z,5.70
2018-09-02T17:44:33.651Z,4.90
2018-09-02T17:47:02.142Z,5.40
2018-09-02T17:49:29.481Z,6.00
2018-09-02T17:51:56.833Z,5.17
2018-09-02T17:54:24.432Z,5.43
2018-09-02T17:56:51.754Z,6.23
2018-09-02T17:59:19.096Z,6.20
2018-09-02T18:01:46.630Z,7.03
2018-09-02T18:04:13.996Z,6.07
2018-09-02T18:06:41.383Z,6.20
2018-09-02T18:09:09.709Z,6.23
2018-09-02T18:11:37.218Z,4.70
2018-09-02T18:14:04.536Z,5.63
2018-09-02T18:16:31.979Z,5.50
2018-09-02T18:18:59.961Z,5.10
2018-09-02T18:21:27.771Z,5.50
2018-09-02T18:23:55.270Z,5.43
2018-09-02T18:26:22.602Z,4.80
2018-09-02T18:28:50.450Z,5.93
2018-09-02T18:31:18.110Z,5.03
2018-09-02T18:33:45.818Z,5.83
2018-09-02T18:36:13.444Z,5.40
2018-09-02T18:38:40.847Z,6.10
2018-09-02T18:41:08.558Z,7.60
2018-09-02T18:43:36.458Z,5.90
2018-09-02T18:46:04.239Z,5.87
2018-09-02T18:48:31.626Z,5.30
2018-09-02T18:50:59.371Z,5.40
2018-09-02T18:53:27.567Z,6.10
2018-09-02T18:55:56.215Z,5.67
2018-09-02T18:58:24.022Z,5.67
2018-09-02T19:00:51.478Z,5.60
2018-09-02T19:03:19.168Z,5.50
2018-09-02T19:05:47.025Z,5.27
2018-09-02T19:08:14.955Z,5.90
2018-09-02T19:10:42.842Z,5.03
2018-09-02T19:13:10.476Z,6.00
2018-09-02T19:15:38.419Z,6.07
2018-09-02T19:18:06.162Z,5.47
2018-09-02T19:20:33.562Z,6.20
2018-09-02T19:23:00.929Z,5.63
2018-09-02T19:25:28.456Z,5.67
2018-09-02T19:27:55.825Z,5.50
2018-09-02T19:30:23.211Z,6.10
2018-09-02T19:32:50.820Z,5.57
2018-09-02T19:35:18.242Z,16.70
2018-09-02T19:37:45.789Z,6.10
2018-09-02T19:40:14.062Z,5.03
2018-09-02T19:42:41.602Z,6.30
2018-09-02T19:45:09.054Z,5.90
2018-09-02T19:47:36.465Z,5.57
2018-09-02T19:50:04.046Z,6.20
2018-09-02T19:52:31.563Z,6.07
2018-09-02T19:54:59.054Z,5.57
2018-09-02T19:57:26.506Z,6.07
2018-09-02T19:59:54.258Z,6.10
2018-09-02T20:02:21.661Z,6.20
2018-09-02T20:04:49.057Z,6.27
2018-09-02T20:07:16.442Z,6.43
2018-09-02T20:09:43.858Z,7.00
2018-09-02T20:12:11.246Z,5.60
2018-09-02T20:14:38.689Z,6.57
2018-09-02T20:17:06.032Z,5.87
2018-09-02T20:19:33.641Z,5.40
2018-09-02T20:22:01.095Z,5.90
2018-09-02T20:24:28.541Z,6.07
2018-09-02T20:26:55.968Z,6.23
2018-09-02T20:29:23.288Z,6.03
2018-09-02T20:31:50.966Z,6.73
2018-09-02T20:34:18.398Z,7.93
2018-09-02T20:36:45.700Z,6.57
2018-09-02T20:39:13.162Z,6.50
2018-09-02T20:41:40.443Z,7.20
2018-09-02T20:44:07.980Z,7.40
2018-09-02T20:46:35.320Z,6.90
2018-09-02T20:49:02.615Z,6.33
2018-09-02T20:51:30.287Z,6.87
2018-09-02T20:53:57.610Z,6.80
2018-09-02T20:56:25.347Z,7.03
2018-09-02T20:58:52.673Z,7.20
2018-09-02T21:01:19.997Z,7.17
2018-09-02T21:03:47.853Z,8.00
2018-09-02T21:06:15.305Z,8.20
2018-09-02T21:08:42.668Z,7.30
2018-09-02T21:11:09.966Z,7.17
2018-09-02T21:13:37.735Z,7.17
2018-09-02T21:16:05.176Z,7.80
2018-09-02T21:18:32.443Z,7.40
2018-09-02T21:20:59.780Z,7.57
2018-09-02T21:23:27.120Z,7.60
2018-09-02T21:25:54.379Z,7.37
2018-09-02T21:28:21.783Z,7.30
2018-09-02T21:30:50.170Z,7.53
2018-09-02T21:33:17.569Z,6.93
2018-09-02T21:35:44.943Z,6.73
2018-09-02T21:38:12.257Z,6.80
2018-09-02T21:40:39.562Z,7.60
2018-09-02T21:43:06.887Z,6.97
2018-09-02T21:45:34.194Z,6.73
2018-09-02T21:48:01.538Z,7.90
2018-09-02T21:50:28.958Z,6.67
2018-09-02T21:52:56.349Z,7.10
2018-09-02T21:55:23.646Z,7.67
2018-09-02T21:57:51.798Z,7.27
2018-09-02T22:00:19.295Z,6.97
2018-09-02T22:02:46.601Z,6.57
2018-09-02T22:05:15.262Z,7.47
2018-09-02T22:07:43.190Z,7.23
2018-09-02T22:10:11.011Z,6.97
2018-09-02T22:12:38.370Z,6.40
2018-09-02T22:15:06.183Z,6.83
2018-09-02T22:17:33.515Z,6.20
2018-09-02T22:20:00.925Z,6.40
2018-09-02T22:22:28.283Z,6.70
2018-09-02T22:24:55.611Z,7.03
2018-09-02T22:27:23.042Z,7.40
2018-09-02T22:29:50.367Z,6.00
2018-09-02T22:32:17.690Z,6.33
2018-09-02T22:34:45.090Z,7.00
2018-09-02T22:37:12.731Z,6.40
2018-09-02T22:39:40.029Z,6.10
2018-09-02T22:42:07.317Z,7.20
2018-09-02T22:44:34.644Z,6.80
2018-09-02T22:47:02.193Z,6.53
2018-09-02T22:49:29.473Z,6.97
2018-09-02T22:51:57.034Z,6.73
2018-09-02T22:54:24.386Z,6.43
2018-09-02T22:56:51.680Z,6.07
2018-09-02T22:59:19.189Z,6.80
2018-09-02T23:01:46.496Z,7.00
2018-09-02T23:04:13.850Z,7.60
2018-09-02T23:06:41.148Z,6.50
2018-09-02T23:09:08.928Z,6.87
2018-09-02T23:11:36.235Z,5.90
2018-09-02T23:14:03.573Z,6.80
2018-09-02T23:16:31.382Z,6.57
2018-09-02T23:18:58.734Z,7.73
2018-09-02T23:21:26.053Z,6.90
2018-09-02T23:23:53.460Z,7.60
2018-09-02T23:26:20.794Z,8.07
2018-09-02T23:28:48.213Z,8.70
2018-09-02T23:31:19.266Z,8.13
2018-09-02T23:33:46.757Z,7.87
2018-09-02T23:36:14.244Z,8.70
2018-09-02T23:38:41.614Z,9.43
2018-09-02T23:41:08.955Z,9.00
2018-09-02T23:43:36.290Z,8.80
2018-09-02T23:46:03.557Z,8.93
2018-09-02T23:48:31.100Z,8.50
2018-09-02T23:50:58.487Z,8.50
2018-09-02T23:53:25.850Z,7.60
2018-09-02T23:55:53.168Z,8.93
2018-09-02T23:58:20.494Z,8.50
